createdAt,value
2019-05-13T00:00:44.811Z,2.50
2019-05-13T00:03:13.724Z,2.77
2019-05-13T00:05:44.553Z,2.70
2019-05-13T00:08:13.957Z,2.70
2019-05-13T00:10:44.089Z,3.20
2019-05-13T00:13:14.691Z,2.30
2019-05-13T00:15:44.386Z,2.07
2019-05-13T00:18:14.356Z,2.53
2019-05-13T00:20:44.318Z,3.10
2019-05-13T00:23:14.250Z,2.80
2019-05-13T00:25:44.386Z,3.13
2019-05-13T00:28:14.440Z,2.70
2019-05-13T00:30:44.455Z,2.70
2019-05-13T00:33:13.967Z,2.50
2019-05-13T00:35:44.279Z,2.27
2019-05-13T00:38:14.174Z,2.17
2019-05-13T00:40:44.329Z,1.97
2019-05-13T00:43:14.361Z,2.43
2019-05-13T00:45:44.515Z,2.20
2019-05-13T00:48:14.346Z,2.40
2019-05-13T00:50:44.551Z,2.53
2019-05-13T00:53:13.455Z,2.50
2019-05-13T00:55:44.227Z,2.23
2019-05-13T00:58:13.982Z,2.27
2019-05-13T01:00:44.377Z,2.53
2019-05-13T01:03:14.219Z,2.97
2019-05-13T01:05:44.498Z,2.60
2019-05-13T01:08:14.578Z,2.20
2019-05-13T01:10:45.222Z,2.73
2019-05-13T01:13:13.743Z,2.93
2019-05-13T01:15:44.279Z,3.13
2019-05-13T01:18:14.252Z,2.87
2019-05-13T01:20:43.737Z,2.33
2019-05-13T01:23:14.198Z,3.03
2019-05-13T01:25:44.550Z,2.03
2019-05-13T01:28:13.498Z,2.63
2019-05-13T01:30:43.849Z,2.60
2019-05-13T01:33:14.441Z,3.00
2019-05-13T01:35:44.518Z,1.93
2019-05-13T01:38:13.592Z,2.00
2019-05-13T01:40:43.961Z,3.03
2019-05-13T01:43:14.384Z,2.60
2019-05-13T01:45:44.095Z,2.90
2019-05-13T01:48:14.145Z,2.40
2019-05-13T01:51:04.135Z,2.23
2019-05-13T01:53:33.609Z,2.87
2019-05-13T01:56:03.871Z,2.03
2019-05-13T01:58:33.994Z,2.00
2019-05-13T02:01:05.099Z,2.33
2019-05-13T02:03:33.831Z,2.87
2019-05-13T02:06:03.786Z,2.43
2019-05-13T02:08:33.676Z,2.13
2019-05-13T02:11:04.416Z,2.27
2019-05-13T02:13:34.402Z,2.87
2019-05-13T02:16:04.182Z,2.67
2019-05-13T02:18:34.183Z,2.70
2019-05-13T02:21:05.453Z,3.23
2019-05-13T02:23:34.022Z,2.63
2019-05-13T02:26:04.510Z,3.17
2019-05-13T02:28:33.496Z,2.80
2019-05-13T02:31:02.296Z,3.00
2019-05-13T02:33:33.888Z,2.90
2019-05-13T02:36:02.974Z,2.80
2019-05-13T02:38:35.568Z,2.90
2019-05-13T02:41:03.067Z,2.90
2019-05-13T02:43:33.317Z,3.03
2019-05-13T02:46:04.131Z,3.20
2019-05-13T02:48:33.198Z,3.20
2019-05-13T02:51:03.759Z,3.00
2019-05-13T02:53:33.628Z,3.53
2019-05-13T02:56:03.196Z,3.00
2019-05-13T02:58:33.294Z,3.07
2019-05-13T03:01:03.121Z,2.90
2019-05-13T03:03:32.948Z,2.73
2019-05-13T03:06:03.015Z,3.20
2019-05-13T03:08:41.113Z,2.57
2019-05-13T03:11:02.902Z,2.60
2019-05-13T03:13:32.771Z,3.27
2019-05-13T03:16:14.997Z,3.27
2019-05-13T03:18:44.007Z,3.40
2019-05-13T03:21:13.141Z,3.57
2019-05-13T03:23:44.007Z,3.40
2019-05-13T03:26:13.027Z,4.30
2019-05-13T03:28:43.664Z,3.47
2019-05-13T03:31:16.708Z,4.27
2019-05-13T03:33:46.841Z,3.93
2019-05-13T03:36:16.846Z,4.00
2019-05-13T03:38:59.755Z,2.73
2019-05-13T03:41:13.430Z,3.17
2019-05-13T03:43:42.984Z,2.80
2019-05-13T03:46:12.594Z,2.73
2019-05-13T03:48:42.896Z,3.23
2019-05-13T03:51:13.369Z,2.90
2019-05-13T03:53:43.208Z,2.70
2019-05-13T03:56:13.056Z,3.03
2019-05-13T03:58:43.430Z,2.90
2019-05-13T04:01:13.000Z,2.67
2019-05-13T04:03:43.887Z,2.70
2019-05-13T04:06:13.531Z,3.10
2019-05-13T04:08:43.369Z,3.20
2019-05-13T04:11:12.739Z,3.07
2019-05-13T04:13:42.970Z,2.90
2019-05-13T04:16:12.873Z,3.03
2019-05-13T04:18:42.566Z,3.60
2019-05-13T04:21:13.063Z,2.63
2019-05-13T04:23:42.586Z,2.90
2019-05-13T04:26:14.634Z,2.77
2019-05-13T04:28:43.434Z,3.40
2019-05-13T04:31:14.153Z,3.40
2019-05-13T04:33:42.797Z,2.77
2019-05-13T04:36:13.393Z,3.53
2019-05-13T04:38:44.219Z,3.87
2019-05-13T04:41:12.163Z,3.40
2019-05-13T04:43:43.757Z,3.10
2019-05-13T04:46:13.917Z,3.40
2019-05-13T04:48:44.183Z,2.90
2019-05-13T04:51:13.677Z,2.90
2019-05-13T04:53:42.516Z,3.50
2019-05-13T04:56:13.664Z,3.20
2019-05-13T04:58:42.801Z,3.00
2019-05-13T05:01:24.022Z,3.23
2019-05-13T05:04:11.700Z,3.50
2019-05-13T05:06:38.354Z,3.33
2019-05-13T05:09:42.864Z,4.27
2019-05-13T05:12:35.949Z,3.20
2019-05-13T05:15:12.083Z,2.80
2019-05-13T05:18:15.710Z,2.40
2019-05-13T05:21:01.502Z,2.80
2019-05-13T05:23:38.698Z,2.47
2019-05-13T05:26:31.404Z,2.03
2019-05-13T05:29:18.570Z,1.93
2019-05-13T05:32:02.374Z,2.50
2019-05-13T05:34:45.981Z,2.43
2019-05-13T05:37:26.480Z,2.50
2019-05-13T05:39:55.954Z,2.10
2019-05-13T05:42:24.698Z,2.63
2019-05-13T05:44:53.545Z,2.63
2019-05-13T05:47:22.099Z,2.50
2019-05-13T05:49:51.642Z,2.20
2019-05-13T05:52:21.253Z,1.90
2019-05-13T05:54:51.658Z,2.63
2019-05-13T05:57:22.324Z,1.83
2019-05-13T05:59:51.718Z,1.93
2019-05-13T06:02:22.897Z,1.77
2019-05-13T06:04:52.001Z,1.70
2019-05-13T06:07:21.937Z,2.17
2019-05-13T06:09:51.561Z,1.80
2019-05-13T06:12:21.430Z,1.57
2019-05-13T06:14:52.325Z,1.60
2019-05-13T06:17:21.886Z,1.90
2019-05-13T06:19:51.227Z,2.07
2019-05-13T06:22:21.708Z,2.00
2019-05-13T06:24:52.003Z,1.50
2019-05-13T06:27:21.355Z,1.80
2019-05-13T06:29:52.613Z,2.13
2019-05-13T06:32:25.478Z,2.50
2019-05-13T06:34:52.451Z,2.07
2019-05-13T06:37:21.711Z,2.13
2019-05-13T06:39:51.256Z,2.37
2019-05-13T06:42:22.045Z,2.30
2019-05-13T06:44:51.413Z,2.20
2019-05-13T06:47:21.924Z,2.13
2019-05-13T06:49:52.428Z,2.17
2019-05-13T06:52:21.329Z,2.10
2019-05-13T06:54:52.047Z,2.20
2019-05-13T06:57:22.020Z,2.80
2019-05-13T06:59:52.362Z,2.10
2019-05-13T07:02:21.625Z,2.40
2019-05-13T07:04:51.694Z,2.60
2019-05-13T07:07:21.943Z,2.40
2019-05-13T07:09:51.756Z,2.37
2019-05-13T07:12:21.931Z,2.10
2019-05-13T07:14:51.854Z,2.23
2019-05-13T07:17:22.328Z,2.07
2019-05-13T07:19:51.709Z,1.50
2019-05-13T07:22:22.931Z,2.13
2019-05-13T07:24:51.966Z,2.40
2019-05-13T07:27:22.918Z,1.60
2019-05-13T07:29:51.821Z,2.43
2019-05-13T07:32:22.118Z,2.90
2019-05-13T07:34:53.155Z,2.10
2019-05-13T07:37:21.869Z,1.97
2019-05-13T07:39:52.821Z,2.27
2019-05-13T07:42:22.186Z,2.97
2019-05-13T07:44:52.169Z,1.70
2019-05-13T07:47:22.323Z,2.23
2019-05-13T07:49:51.629Z,2.33
2019-05-13T07:52:22.566Z,2.00
2019-05-13T07:54:52.084Z,2.03
2019-05-13T07:57:21.496Z,1.40
2019-05-13T07:59:52.243Z,2.00
2019-05-13T08:02:21.676Z,2.10
2019-05-13T08:04:52.877Z,2.50
2019-05-13T08:07:22.683Z,2.30
2019-05-13T08:09:51.829Z,82.97
2019-05-13T08:12:21.624Z,93.20
2019-05-13T08:14:52.163Z,79.60
2019-05-13T08:17:22.433Z,88.50
2019-05-13T08:19:51.978Z,204.60
2019-05-13T08:22:22.040Z,57.90
2019-05-13T08:24:54.060Z,63.07
2019-05-13T08:27:30.388Z,29.80
2019-05-13T08:29:52.317Z,39.87
2019-05-13T08:32:22.061Z,31.80
2019-05-13T08:34:52.607Z,81.17
2019-05-13T08:37:25.822Z,131.00
2019-05-13T08:39:54.505Z,106.00
2019-05-13T08:42:24.196Z,83.50
2019-05-13T08:44:58.023Z,65.30
2019-05-13T08:47:31.922Z,86.60
2019-05-13T08:50:04.222Z,78.20
2019-05-13T08:52:31.450Z,74.93
2019-05-13T08:55:01.445Z,49.43
2019-05-13T08:57:31.552Z,42.90
2019-05-13T09:00:04.924Z,52.70
2019-05-13T09:02:31.400Z,5.87
2019-05-13T09:05:02.292Z,10.40
2019-05-13T09:07:32.056Z,12.63
2019-05-13T09:10:01.860Z,9.10
2019-05-13T09:12:35.743Z,11.47
2019-05-13T09:15:03.310Z,2.80
2019-05-13T09:17:32.145Z,3.73
2019-05-13T09:20:02.866Z,3.20
2019-05-13T09:22:31.873Z,2.50
2019-05-13T09:25:02.117Z,3.20
2019-05-13T09:27:31.869Z,2.40
2019-05-13T09:30:02.674Z,1.97
2019-05-13T09:32:31.766Z,95.30
2019-05-13T09:35:02.984Z,90.93
2019-05-13T09:37:31.681Z,111.17
2019-05-13T09:40:02.281Z,96.20
2019-05-13T09:42:47.085Z,153.67
2019-05-13T09:45:02.179Z,92.80
2019-05-13T09:47:32.226Z,91.83
2019-05-13T09:50:00.959Z,91.53
2019-05-13T09:52:31.734Z,91.33
2019-05-13T09:55:02.845Z,95.23
2019-05-13T09:57:32.163Z,92.50
2019-05-13T10:00:01.687Z,100.20
2019-05-13T10:02:32.120Z,96.40
2019-05-13T10:05:02.217Z,103.20
2019-05-13T10:07:31.831Z,93.50
2019-05-13T10:10:01.659Z,92.67
2019-05-13T10:12:31.911Z,92.70
2019-05-13T10:15:01.909Z,93.07
2019-05-13T10:17:31.816Z,92.40
2019-05-13T10:20:00.597Z,93.97
2019-05-13T10:22:28.997Z,91.90
2019-05-13T10:24:57.489Z,91.83
2019-05-13T10:27:25.975Z,95.40
2019-05-13T10:29:54.637Z,100.17
2019-05-13T10:32:23.700Z,111.80
2019-05-13T10:34:53.129Z,114.40
2019-05-13T10:37:22.216Z,94.83
2019-05-13T10:39:51.753Z,93.43
2019-05-13T10:42:22.162Z,97.33
2019-05-13T10:44:52.360Z,96.77
2019-05-13T10:47:22.714Z,91.47
2019-05-13T10:49:52.350Z,91.20
2019-05-13T10:52:22.869Z,104.83
2019-05-13T10:54:52.656Z,91.87
2019-05-13T10:57:21.669Z,93.63
2019-05-13T10:59:52.478Z,93.40
2019-05-13T11:02:22.156Z,94.03
2019-05-13T11:04:52.460Z,95.33
2019-05-13T11:07:22.417Z,80.67
2019-05-13T11:09:52.755Z,85.00
2019-05-13T11:12:22.734Z,87.33
2019-05-13T11:14:53.991Z,81.20
2019-05-13T11:17:23.166Z,78.87
2019-05-13T11:19:51.370Z,80.10
2019-05-13T11:22:22.305Z,81.53
2019-05-13T11:24:51.830Z,79.73
2019-05-13T11:27:20.018Z,82.70
2019-05-13T11:29:52.390Z,81.50
2019-05-13T11:32:21.612Z,92.53
2019-05-13T11:34:53.062Z,90.10
2019-05-13T11:37:22.353Z,91.10
2019-05-13T11:39:51.671Z,89.00
2019-05-13T11:42:22.675Z,92.37
2019-05-13T11:44:52.794Z,92.40
2019-05-13T11:47:20.559Z,94.73
2019-05-13T11:49:51.402Z,93.00
2019-05-13T11:52:19.277Z,92.77
2019-05-13T11:54:47.707Z,92.23
2019-05-13T11:57:16.381Z,90.87
2019-05-13T11:59:45.681Z,91.50
2019-05-13T12:02:14.320Z,93.43
2019-05-13T12:04:43.821Z,90.50
2019-05-13T12:07:13.509Z,92.10
2019-05-13T12:09:42.088Z,91.27
2019-05-13T12:12:13.228Z,89.53
2019-05-13T12:15:03.986Z,90.27
2019-05-13T12:17:14.098Z,90.33
2019-05-13T12:19:41.913Z,93.23
2019-05-13T12:22:13.077Z,1.90
2019-05-13T12:24:42.265Z,1.30
2019-05-13T12:27:11.574Z,1.57
2019-05-13T12:29:43.059Z,1.70
2019-05-13T12:32:13.522Z,1.50
2019-05-13T12:34:45.623Z,1.20
2019-05-13T12:37:12.254Z,1.10
2019-05-13T12:39:43.851Z,1.00
2019-05-13T12:42:12.736Z,1.60
2019-05-13T12:44:59.818Z,0.83
2019-05-13T12:47:12.121Z,1.23
2019-05-13T12:49:43.769Z,1.00
2019-05-13T12:52:13.094Z,0.90
2019-05-13T12:54:43.826Z,0.90
2019-05-13T12:57:14.996Z,1.30
2019-05-13T12:59:43.536Z,1.40
2019-05-13T13:02:13.408Z,1.20
2019-05-13T13:05:06.830Z,0.90
2019-05-13T13:07:13.389Z,1.10
2019-05-13T13:09:43.233Z,1.30
2019-05-13T13:12:12.089Z,1.53
2019-05-13T13:14:44.407Z,1.53
2019-05-13T13:17:12.926Z,1.27
2019-05-13T13:19:41.794Z,1.53
2019-05-13T13:22:13.312Z,1.40
2019-05-13T13:24:48.363Z,1.00
2019-05-13T13:27:19.320Z,1.10
2019-05-13T13:29:43.332Z,1.50
2019-05-13T13:32:13.266Z,1.37
2019-05-13T13:34:43.888Z,1.53
2019-05-13T13:37:11.694Z,3.00
2019-05-13T13:39:43.153Z,1.00
2019-05-13T13:42:12.907Z,1.73
2019-05-13T13:44:42.866Z,1.00
2019-05-13T13:47:15.061Z,1.50
2019-05-13T13:49:43.579Z,1.40
2019-05-13T13:52:16.119Z,1.63
2019-05-13T13:54:44.219Z,1.73
2019-05-13T13:57:13.348Z,5.73
2019-05-13T14:00:14.063Z,2.10
2019-05-13T14:02:13.433Z,1.93
2019-05-13T14:04:42.989Z,1.23
2019-05-13T14:07:34.822Z,1.23
2019-05-13T14:09:42.302Z,1.20
2019-05-13T14:12:11.401Z,1.10
2019-05-13T14:14:41.496Z,1.63
2019-05-13T14:17:11.341Z,1.53
2019-05-13T14:19:42.209Z,1.20
2019-05-13T14:22:12.350Z,1.10
2019-05-13T14:24:42.517Z,1.17
2019-05-13T14:27:12.036Z,1.20
2019-05-13T14:29:46.115Z,1.17
2019-05-13T14:32:11.266Z,0.77
2019-05-13T14:34:42.028Z,1.20
2019-05-13T14:37:11.722Z,1.20
2019-05-13T14:39:40.232Z,1.40
2019-05-13T14:42:08.708Z,0.80
2019-05-13T14:44:37.251Z,1.27
2019-05-13T14:47:05.853Z,1.00
2019-05-13T14:49:34.352Z,1.37
2019-05-13T14:52:02.845Z,1.30
2019-05-13T14:54:31.551Z,1.10
2019-05-13T14:57:02.296Z,1.30
2019-05-13T14:59:31.483Z,0.87
2019-05-13T15:02:01.347Z,0.93
2019-05-13T15:04:32.460Z,1.20
2019-05-13T15:07:00.206Z,1.27
2019-05-13T15:09:31.272Z,1.10
2019-05-13T15:12:01.759Z,1.53
2019-05-13T15:14:31.765Z,1.30
2019-05-13T15:17:04.149Z,1.40
2019-05-13T15:19:31.737Z,1.20
2019-05-13T15:22:00.105Z,1.13
2019-05-13T15:24:28.816Z,1.20
2019-05-13T15:26:57.366Z,1.50
2019-05-13T15:29:25.901Z,1.20
2019-05-13T15:31:54.392Z,0.93
2019-05-13T15:34:22.938Z,1.27
2019-05-13T15:36:51.551Z,1.27
2019-05-13T15:39:20.353Z,1.20
2019-05-13T15:41:49.019Z,1.30
2019-05-13T15:44:17.587Z,1.50
2019-05-13T15:46:46.195Z,0.97
2019-05-13T15:49:14.886Z,1.10
2019-05-13T15:51:43.792Z,1.57
2019-05-13T15:54:15.523Z,1.20
2019-05-13T15:56:42.848Z,1.57
2019-05-13T15:59:12.548Z,0.87
2019-05-13T16:01:41.596Z,1.07
2019-05-13T16:04:12.781Z,1.50
2019-05-13T16:06:41.835Z,1.00
2019-05-13T16:09:11.696Z,1.30
2019-05-13T16:11:41.470Z,1.20
2019-05-13T16:14:11.732Z,1.30
2019-05-13T16:16:41.733Z,1.33
2019-05-13T16:19:10.503Z,1.50
2019-05-13T16:21:41.385Z,1.50
2019-05-13T16:24:11.737Z,1.63
2019-05-13T16:26:42.339Z,1.37
2019-05-13T16:29:12.490Z,1.17
2019-05-13T16:31:41.568Z,1.27
2019-05-13T16:34:12.823Z,1.20
2019-05-13T16:36:42.948Z,1.23
2019-05-13T16:39:12.311Z,1.40
2019-05-13T16:41:42.598Z,1.13
2019-05-13T16:44:39.149Z,1.40
2019-05-13T16:46:42.654Z,0.93
2019-05-13T16:49:12.206Z,0.90
2019-05-13T16:51:42.656Z,1.10
2019-05-13T16:54:11.540Z,0.90
2019-05-13T16:56:42.046Z,1.40
2019-05-13T16:59:10.582Z,1.40
2019-05-13T17:01:39.203Z,1.20
2019-05-13T17:04:07.761Z,1.23
2019-05-13T17:06:36.394Z,1.33
2019-05-13T17:09:05.928Z,1.70
2019-05-13T17:11:34.556Z,1.17
2019-05-13T17:14:05.815Z,1.30
2019-05-13T17:16:33.453Z,1.37
2019-05-13T17:19:02.102Z,1.17
2019-05-13T17:21:31.665Z,1.50
2019-05-13T17:24:01.578Z,1.40
2019-05-13T17:26:32.495Z,1.20
2019-05-13T17:29:01.406Z,1.10
2019-05-13T17:31:32.394Z,1.40
2019-05-13T17:34:01.450Z,1.33
2019-05-13T17:36:32.405Z,1.10
2019-05-13T17:39:01.875Z,1.37
2019-05-13T17:41:32.165Z,1.40
2019-05-13T17:44:02.451Z,1.60
2019-05-13T17:46:32.633Z,1.67
2019-05-13T17:49:01.317Z,1.80
2019-05-13T17:51:30.025Z,1.60
2019-05-13T17:54:01.264Z,1.80
2019-05-13T17:56:29.226Z,1.90
2019-05-13T17:58:57.855Z,1.57
2019-05-13T18:01:26.468Z,2.03
2019-05-13T18:03:55.128Z,1.50
2019-05-13T18:06:23.670Z,2.03
2019-05-13T18:08:52.291Z,1.77
2019-05-13T18:11:21.883Z,1.77
2019-05-13T18:13:51.874Z,2.17
2019-05-13T18:16:21.741Z,2.20
2019-05-13T18:18:52.122Z,2.03
2019-05-13T18:21:20.975Z,1.77
2019-05-13T18:23:51.981Z,1.83
2019-05-13T18:26:21.627Z,1.70
2019-05-13T18:28:51.512Z,2.07
2019-05-13T18:31:20.244Z,2.10
2019-05-13T18:33:50.982Z,2.10
2019-05-13T18:36:19.228Z,1.80
2019-05-13T18:38:47.899Z,1.90
2019-05-13T18:41:16.584Z,2.13
2019-05-13T18:43:45.262Z,2.27
2019-05-13T18:46:13.937Z,2.03
2019-05-13T18:48:57.396Z,2.30
2019-05-13T18:51:13.016Z,2.40
2019-05-13T18:53:41.697Z,2.60
2019-05-13T18:56:12.290Z,2.33
2019-05-13T18:58:40.647Z,2.63
2019-05-13T19:01:11.222Z,2.20
2019-05-13T19:03:41.442Z,2.70
2019-05-13T19:06:11.674Z,2.60
2019-05-13T19:08:41.365Z,3.00
2019-05-13T19:11:11.756Z,2.43
2019-05-13T19:13:41.619Z,2.60
2019-05-13T19:16:11.895Z,2.70
2019-05-13T19:18:42.234Z,3.00
2019-05-13T19:21:11.216Z,3.07
2019-05-13T19:23:41.785Z,3.10
2019-05-13T19:26:11.311Z,131.80
2019-05-13T19:28:40.223Z,91.93
2019-05-13T19:31:09.018Z,90.27
2019-05-13T19:33:37.748Z,91.03
2019-05-13T19:36:06.626Z,88.57
2019-05-13T19:38:38.729Z,112.50
2019-05-13T19:41:08.267Z,105.67
2019-05-13T19:43:41.947Z,108.90
2019-05-13T19:46:11.449Z,98.03
2019-05-13T19:48:41.713Z,169.97
2019-05-13T19:51:14.503Z,151.53
2019-05-13T19:53:48.877Z,104.63
2019-05-13T19:56:18.445Z,113.30
2019-05-13T19:58:48.089Z,116.63
2019-05-13T20:01:21.688Z,128.30
2019-05-13T20:03:51.784Z,119.87
2019-05-13T20:06:22.852Z,141.47
2019-05-13T20:08:52.193Z,125.43
2019-05-13T20:11:21.853Z,95.70
2019-05-13T20:13:52.154Z,88.93
2019-05-13T20:16:22.186Z,83.40
2019-05-13T20:18:51.879Z,92.07
2019-05-13T20:21:20.895Z,79.23
2019-05-13T20:23:51.920Z,75.07
2019-05-13T20:26:21.673Z,109.00
2019-05-13T20:28:56.671Z,121.63
2019-05-13T20:31:25.609Z,120.77
2019-05-13T20:33:54.356Z,101.60
2019-05-13T20:36:23.135Z,110.87
2019-05-13T20:38:52.369Z,112.37
2019-05-13T20:41:22.362Z,92.57
2019-05-13T20:43:52.053Z,93.83
2019-05-13T20:46:23.068Z,110.10
2019-05-13T20:48:51.929Z,152.47
2019-05-13T20:51:21.993Z,87.87
2019-05-13T20:53:51.806Z,110.60
2019-05-13T20:56:21.465Z,87.43
2019-05-13T20:58:51.552Z,87.97
2019-05-13T21:01:20.436Z,86.43
2019-05-13T21:03:51.328Z,95.70
2019-05-13T21:06:19.257Z,90.27
2019-05-13T21:08:47.805Z,102.90
2019-05-13T21:11:16.450Z,121.73
2019-05-13T21:13:44.980Z,87.73
2019-05-13T21:16:13.726Z,111.83
2019-05-13T21:18:42.302Z,93.73
2019-05-13T21:21:11.767Z,83.37
2019-05-13T21:23:41.685Z,118.87
2019-05-13T21:26:13.122Z,85.93
2019-05-13T21:28:41.830Z,79.67
2019-05-13T21:31:11.350Z,72.40
2019-05-13T21:33:40.170Z,66.70
2019-05-13T21:36:08.657Z,30.40
2019-05-13T21:38:37.757Z,4.67
2019-05-13T21:41:06.238Z,4.10
2019-05-13T21:43:34.684Z,5.57
2019-05-13T21:46:03.365Z,4.50
2019-05-13T21:48:32.555Z,4.37
2019-05-13T21:51:01.363Z,4.83
2019-05-13T21:53:32.331Z,4.83
2019-05-13T21:56:02.324Z,5.07
2019-05-13T21:58:31.265Z,4.13
2019-05-13T22:01:01.567Z,4.80
2019-05-13T22:03:33.227Z,7.83
2019-05-13T22:06:01.979Z,7.77
2019-05-13T22:08:32.066Z,8.20
2019-05-13T22:11:01.768Z,6.97
2019-05-13T22:13:31.539Z,7.13
2019-05-13T22:16:01.645Z,6.20
2019-05-13T22:18:31.373Z,5.90
2019-05-13T22:21:01.786Z,6.20
2019-05-13T22:23:32.079Z,5.33
2019-05-13T22:26:01.595Z,5.00
2019-05-13T22:28:31.323Z,4.87
2019-05-13T22:31:01.333Z,5.97
2019-05-13T22:33:32.317Z,5.50
2019-05-13T22:36:01.664Z,4.80
2019-05-13T22:38:32.263Z,4.43
2019-05-13T22:41:01.223Z,5.30
2019-05-13T22:43:32.047Z,4.73
2019-05-13T22:46:00.119Z,5.93
2019-05-13T22:48:29.473Z,5.17
2019-05-13T22:51:01.173Z,5.30
2019-05-13T22:53:31.564Z,5.50
2019-05-13T22:55:59.392Z,4.30
2019-05-13T22:58:27.789Z,6.23
2019-05-13T23:00:56.207Z,5.00
2019-05-13T23:03:24.768Z,5.30
2019-05-13T23:05:53.305Z,5.17
2019-05-13T23:08:21.839Z,5.07
2019-05-13T23:10:51.446Z,5.10
2019-05-13T23:13:20.159Z,5.77
2019-05-13T23:15:48.763Z,6.07
2019-05-13T23:18:17.381Z,5.63
2019-05-13T23:20:45.929Z,5.60
2019-05-13T23:23:14.414Z,5.17
2019-05-13T23:25:43.325Z,5.03
2019-05-13T23:28:11.954Z,6.00
2019-05-13T23:30:41.750Z,5.20
2019-05-13T23:33:11.641Z,5.60
2019-05-13T23:35:41.806Z,5.43
2019-05-13T23:38:10.458Z,6.30
2019-05-13T23:40:39.077Z,6.10
2019-05-13T23:43:07.534Z,6.63
2019-05-13T23:45:36.017Z,5.83
2019-05-13T23:48:04.494Z,5.87
2019-05-13T23:50:32.971Z,6.17
2019-05-13T23:53:01.379Z,6.73
2019-05-13T23:55:31.983Z,5.17
2019-05-13T23:58:01.681Z,6.13
